Galveston, TX

7:54 AM CDT on July 27, 2016 (GMT -0500)
Galveston.com | | Change Station

Elev 36 ft 29.31 °N, 94.79 °W | Updated 45 seconds ago

Thunderstorms and Rain
Thunderstorm Rain Mist
75.4 °F
Feels Like 76 °F
N
1.4
Wind Variable Wind from SE
Gusts 11.0 mph

Today
High -- | Low -- °F
--% Chance of Precip.
Yesterday
High -- | Low -- °F
Precip. -- in
Pressure 29.98 in
Visibility 5.0 miles
Clouds Few 1900 ft
Mostly Cloudy 4800 ft
Overcast 7500 ft
Heat Index 76 °F
Dew Point 71 °F
Humidity 85%
Rainfall 0.07 in
Snow Depth Not available.
6:36 AM 8:14 PM
Last Quarter, 43% visible
SPECI KGLS 271236Z 21009KT 5SM TSRA BR FEW019 BKN048 OVC075 24/22 A2998 RMK AO2 PK WND 27027/1226 WSHFT 1209 LTG DSNT NE AND E AND SW RAB11 TSB20 P0007 T02390222
Pressure 29.98 in
Visibility 5.0 miles
Clouds Few 1900 ft
Mostly Cloudy 4800 ft
Overcast 7500 ft
Heat Index 76 °F
Dew Point 71 °F
Humidity 85%
Rainfall 0.07 in
Snow Depth Not available.
6:36 AM 8:14 PM
Last Quarter, 43% visible
SPECI KGLS 271236Z 21009KT 5SM TSRA BR FEW019 BKN048 OVC075 24/22 A2998 RMK AO2 PK WND 27027/1226 WSHFT 1209 LTG DSNT NE AND E AND SW RAB11 TSB20 P0007 T02390222

10-Day Weather Forecast

Almanac

Astronomy

Jul. 27, 2016 Rise Set
Actual Time
Civil Twilight
Nautical Twilight
Astronomical Twilight
Moon
Length of Visible Light
Length of Day
Tomorrow will be .
, % of the Moon is Illuminated

Today's Extremes

State Highs State Lows

Community

WunderPhotos

Upload Photos

1,927,841 photos uploaded!

WunderBlog® & News

Nearby

Air Quality

  Air Quality AQ Index Pollutant
Not available.

Snow Depth

Station Depth Elevation

Earthquake Activity

City Distance Mag. Time & Date
Minimum magnitude displayed is 2.5.

Coastal Water Temperatures

Place Temperature

Stations

Nearby Weather Stations

Station Location Temp. Windchill Dew Point Humidity Wind Precip. Elev Updated Type
                   

Watches & Warnings

There are currently no watches in effect.